createdAt,value
2018-07-24T00:00:32.206Z,7.23
2018-07-24T00:02:58.142Z,7.27
2018-07-24T00:05:24.870Z,8.63
2018-07-24T00:07:50.806Z,8.10
2018-07-24T00:10:17.493Z,7.83
2018-07-24T00:12:43.442Z,8.10
2018-07-24T00:15:09.447Z,6.83
2018-07-24T00:17:35.450Z,8.07
2018-07-24T00:20:01.396Z,6.93
2018-07-24T00:22:27.359Z,8.40
2018-07-24T00:24:53.315Z,8.30
2018-07-24T00:27:19.254Z,6.53
2018-07-24T00:29:45.179Z,7.80
2018-07-24T00:32:11.159Z,7.33
2018-07-24T00:34:37.099Z,7.10
2018-07-24T00:37:03.024Z,8.13
2018-07-24T00:39:28.978Z,8.93
2018-07-24T00:41:54.934Z,6.23
2018-07-24T00:44:21.663Z,7.33
2018-07-24T00:46:47.613Z,7.17
2018-07-24T00:49:14.294Z,7.30
2018-07-24T00:51:40.218Z,6.10
2018-07-24T00:54:06.232Z,5.20
2018-07-24T00:56:32.137Z,7.67
2018-07-24T00:58:58.070Z,6.27
2018-07-24T01:01:24.056Z,5.50
2018-07-24T01:03:50.724Z,5.40
2018-07-24T01:06:16.679Z,5.63
2018-07-24T01:08:42.623Z,9.30
2018-07-24T01:11:08.573Z,4.87
2018-07-24T01:13:34.497Z,7.40
2018-07-24T01:16:01.216Z,4.63
2018-07-24T01:18:27.913Z,5.10
2018-07-24T01:20:53.855Z,4.53
2018-07-24T01:23:19.800Z,4.37
2018-07-24T01:25:46.465Z,5.23
2018-07-24T01:28:13.174Z,7.27
2018-07-24T01:30:39.116Z,6.30
2018-07-24T01:33:05.810Z,4.80
2018-07-24T01:35:31.760Z,4.67
2018-07-24T01:37:57.728Z,5.10
2018-07-24T01:40:23.688Z,5.20
2018-07-24T01:42:49.683Z,4.43
2018-07-24T01:45:15.620Z,5.40
2018-07-24T01:47:41.577Z,5.13
2018-07-24T01:50:08.283Z,5.73
2018-07-24T01:52:34.969Z,7.77
2018-07-24T01:55:01.669Z,7.00
2018-07-24T01:57:27.602Z,7.97
2018-07-24T01:59:53.581Z,6.60
2018-07-24T02:02:19.503Z,7.00
2018-07-24T02:04:45.469Z,7.33
2018-07-24T02:07:11.415Z,7.10
2018-07-24T02:09:38.082Z,8.40
2018-07-24T02:12:04.030Z,8.17
2018-07-24T02:14:29.986Z,9.07
2018-07-24T02:16:55.942Z,8.57
2018-07-24T02:19:21.877Z,10.07
2018-07-24T02:21:47.869Z,8.33
2018-07-24T02:24:14.544Z,11.70
2018-07-24T02:26:40.479Z,9.47
2018-07-24T02:29:06.438Z,9.47
2018-07-24T02:31:33.126Z,9.37
2018-07-24T02:33:59.080Z,8.77
2018-07-24T02:36:25.026Z,11.33
2018-07-24T02:38:51.755Z,9.13
2018-07-24T02:41:17.704Z,9.87
2018-07-24T02:43:44.372Z,8.23
2018-07-24T02:46:10.348Z,8.43
2018-07-24T02:48:37.024Z,9.20
2018-07-24T02:51:02.974Z,10.10
2018-07-24T02:53:28.927Z,10.73
2018-07-24T02:55:55.504Z,9.37
2018-07-24T02:58:21.468Z,11.50
2018-07-24T03:00:47.415Z,9.77
2018-07-24T03:03:13.388Z,11.07
2018-07-24T03:05:39.310Z,13.53
2018-07-24T03:08:05.285Z,12.67
2018-07-24T03:10:31.222Z,12.93
2018-07-24T03:12:57.927Z,10.30
2018-07-24T03:15:23.878Z,10.90
2018-07-24T03:17:50.582Z,11.60
2018-07-24T03:20:16.555Z,9.00
2018-07-24T03:22:42.509Z,9.90
2018-07-24T03:25:08.456Z,9.73
2018-07-24T03:27:34.422Z,11.60
2018-07-24T03:30:01.098Z,10.70
2018-07-24T03:32:27.018Z,12.50
2018-07-24T03:34:52.979Z,10.43
2018-07-24T03:37:18.924Z,11.23
2018-07-24T03:39:45.654Z,10.87
2018-07-24T03:42:11.576Z,10.83
2018-07-24T03:44:38.288Z,12.63
2018-07-24T03:47:04.227Z,12.47
2018-07-24T03:49:30.159Z,12.97
2018-07-24T03:51:56.113Z,11.70
2018-07-24T03:54:22.064Z,14.63
2018-07-24T03:56:48.007Z,12.43
2018-07-24T03:59:13.937Z,11.13
2018-07-24T04:01:39.908Z,11.03
2018-07-24T04:04:05.866Z,12.00
2018-07-24T04:06:31.861Z,14.10
2018-07-24T04:08:57.804Z,12.03
2018-07-24T04:11:23.769Z,11.70
2018-07-24T04:13:50.477Z,13.27
2018-07-24T04:16:16.427Z,13.13
2018-07-24T04:18:43.123Z,12.00
2018-07-24T04:21:09.080Z,10.30
2018-07-24T04:23:35.038Z,12.43
2018-07-24T04:26:00.981Z,13.23
2018-07-24T04:28:26.944Z,14.60
2018-07-24T04:30:52.930Z,13.93
2018-07-24T04:33:18.897Z,14.33
2018-07-24T04:35:45.590Z,16.70
2018-07-24T04:38:11.540Z,13.77
2018-07-24T04:40:37.478Z,14.23
2018-07-24T04:43:03.395Z,12.67
2018-07-24T04:45:29.365Z,12.63
2018-07-24T04:47:55.311Z,14.20
2018-07-24T04:50:21.290Z,12.43
2018-07-24T04:52:47.235Z,13.80
2018-07-24T04:55:13.172Z,13.37
2018-07-24T04:57:39.115Z,14.00
2018-07-24T05:00:05.051Z,13.83
2018-07-24T05:02:31.057Z,12.23
2018-07-24T05:04:56.981Z,14.33
2018-07-24T05:07:22.938Z,12.00
2018-07-24T05:09:49.621Z,14.13
2018-07-24T05:12:15.577Z,12.30
2018-07-24T05:14:41.505Z,13.70
2018-07-24T05:17:07.475Z,12.37
2018-07-24T05:19:33.456Z,14.23
2018-07-24T05:22:00.149Z,12.93
2018-07-24T05:24:26.104Z,11.13
2018-07-24T05:26:52.038Z,11.63
2018-07-24T05:29:17.980Z,11.27
2018-07-24T05:31:43.939Z,11.87
2018-07-24T05:34:09.932Z,11.50
2018-07-24T05:36:35.864Z,11.03
2018-07-24T05:39:01.796Z,10.53
2018-07-24T05:41:27.781Z,10.80
2018-07-24T05:43:54.498Z,10.43
2018-07-24T05:46:20.487Z,10.67
2018-07-24T05:48:46.498Z,15.07
2018-07-24T05:51:12.459Z,11.50
2018-07-24T05:53:38.418Z,12.17
2018-07-24T05:56:05.103Z,13.50
2018-07-24T05:58:31.058Z,10.80
2018-07-24T06:00:57.006Z,11.23
2018-07-24T06:03:23.713Z,10.93
2018-07-24T06:05:49.647Z,9.23
2018-07-24T06:08:15.607Z,9.07
2018-07-24T06:10:41.571Z,9.50
2018-07-24T06:13:07.572Z,9.83
2018-07-24T06:15:33.536Z,8.53
2018-07-24T06:17:59.561Z,7.57
2018-07-24T06:20:25.512Z,8.03
2018-07-24T06:22:51.447Z,7.73
2018-07-24T06:25:17.421Z,8.13
2018-07-24T06:27:43.366Z,8.50
2018-07-24T06:30:10.061Z,8.53
2018-07-24T06:32:36.001Z,7.77
2018-07-24T06:35:02.035Z,8.50
2018-07-24T06:37:27.917Z,9.07
2018-07-24T06:39:53.882Z,11.07
2018-07-24T06:42:20.630Z,8.23
2018-07-24T06:44:47.366Z,7.83
2018-07-24T06:47:13.302Z,7.60
2018-07-24T06:49:39.258Z,7.90
2018-07-24T06:52:05.209Z,10.47
2018-07-24T06:54:31.171Z,7.47
2018-07-24T06:56:57.138Z,7.00
2018-07-24T06:59:23.089Z,7.22
2018-07-24T07:01:49.039Z,10.23
2018-07-24T07:04:15.747Z,7.35
2018-07-24T07:06:41.714Z,7.03
2018-07-24T07:09:07.690Z,7.95
2018-07-24T07:11:33.661Z,5.82
2018-07-24T07:13:59.652Z,7.28
2018-07-24T07:16:26.331Z,5.50
2018-07-24T07:18:52.302Z,6.05
2018-07-24T07:21:18.237Z,6.00
2018-07-24T07:23:44.937Z,5.20
2018-07-24T07:26:10.972Z,5.45
2018-07-24T07:28:36.883Z,5.55
2018-07-24T07:31:02.868Z,5.35
2018-07-24T07:33:28.815Z,6.10
2018-07-24T07:35:54.766Z,9.35
2018-07-24T07:38:20.717Z,5.50
2018-07-24T07:40:48.093Z,5.97
2018-07-24T07:43:14.058Z,5.18
2018-07-24T07:45:39.989Z,6.12
2018-07-24T07:48:05.935Z,6.78
2018-07-24T07:50:31.862Z,6.03
2018-07-24T07:52:58.568Z,6.72
2018-07-24T07:55:24.524Z,5.30
2018-07-24T07:57:51.254Z,6.03
2018-07-24T08:00:17.209Z,5.25
2018-07-24T08:02:43.895Z,7.95
2018-07-24T08:05:09.867Z,5.35
2018-07-24T08:07:35.809Z,4.93
2018-07-24T08:10:01.790Z,6.15
2018-07-24T08:12:28.501Z,5.72
2018-07-24T08:14:54.473Z,3.90
2018-07-24T08:17:20.466Z,4.12
2018-07-24T08:19:46.450Z,3.70
2018-07-24T08:22:12.436Z,3.50
2018-07-24T08:24:39.108Z,3.83
2018-07-24T08:27:05.086Z,5.55
2018-07-24T08:29:31.774Z,4.80
2018-07-24T08:31:58.472Z,4.25
2018-07-24T08:34:25.176Z,2.58
2018-07-24T08:36:51.134Z,3.45
2018-07-24T08:39:17.796Z,2.60
2018-07-24T08:41:43.779Z,3.10
2018-07-24T08:44:09.740Z,2.85
2018-07-24T08:46:35.682Z,2.95
2018-07-24T08:49:01.771Z,3.17
2018-07-24T08:51:28.577Z,3.58
2018-07-24T08:53:55.086Z,2.75
2018-07-24T08:56:21.292Z,2.80
2018-07-24T08:58:47.378Z,3.10
2018-07-24T09:01:14.086Z,3.15
2018-07-24T09:03:40.096Z,4.12
2018-07-24T09:06:06.050Z,3.53
2018-07-24T09:08:32.032Z,2.97
2018-07-24T09:10:57.982Z,3.15
2018-07-24T09:13:24.167Z,3.37
2018-07-24T09:15:51.484Z,3.17
2018-07-24T09:18:18.345Z,3.17
2018-07-24T09:20:44.291Z,3.10
2018-07-24T09:23:10.243Z,4.43
2018-07-24T09:25:36.212Z,3.08
2018-07-24T09:28:02.151Z,3.53
2018-07-24T09:30:28.842Z,2.87
2018-07-24T09:32:54.791Z,3.15
2018-07-24T09:35:20.761Z,3.30
2018-07-24T09:37:46.704Z,3.30
2018-07-24T09:40:12.714Z,4.47
2018-07-24T09:42:38.650Z,2.67
2018-07-24T09:45:04.590Z,3.03
2018-07-24T09:47:30.573Z,2.83
2018-07-24T09:49:56.544Z,3.05
2018-07-24T09:52:22.509Z,4.28
2018-07-24T09:54:48.426Z,3.95
2018-07-24T09:57:15.157Z,3.00
2018-07-24T09:59:41.171Z,3.37
2018-07-24T10:02:07.892Z,3.30
2018-07-24T10:04:33.896Z,4.32
2018-07-24T10:06:59.891Z,2.90
2018-07-24T10:09:25.842Z,4.00
2018-07-24T10:11:51.759Z,3.08
2018-07-24T10:14:17.732Z,4.35
2018-07-24T10:16:44.491Z,3.37
2018-07-24T10:19:10.510Z,2.83
2018-07-24T10:21:36.481Z,2.97
2018-07-24T10:24:02.438Z,3.55
2018-07-24T10:26:29.128Z,3.53
2018-07-24T10:28:55.215Z,3.40
2018-07-24T10:31:21.173Z,4.50
2018-07-24T10:33:47.107Z,3.20
2018-07-24T10:36:13.083Z,2.85
2018-07-24T10:38:39.023Z,2.90
2018-07-24T10:41:05.001Z,3.47
2018-07-24T10:43:30.943Z,3.28
2018-07-24T10:45:57.667Z,5.45
2018-07-24T10:48:23.600Z,4.05
2018-07-24T10:50:50.336Z,3.42
2018-07-24T10:53:16.278Z,3.15
2018-07-24T10:55:42.255Z,3.25
2018-07-24T10:58:08.220Z,2.85
2018-07-24T11:00:34.172Z,3.33
2018-07-24T11:03:00.129Z,4.20
2018-07-24T11:05:26.079Z,3.30
2018-07-24T11:07:52.777Z,3.40
2018-07-24T11:10:18.717Z,3.08
2018-07-24T11:12:44.674Z,4.90
2018-07-24T11:15:11.377Z,3.40
2018-07-24T11:17:37.314Z,3.17
2018-07-24T11:20:03.282Z,3.80
2018-07-24T11:22:29.346Z,4.05
2018-07-24T11:24:55.198Z,3.20
2018-07-24T11:27:21.908Z,3.12
2018-07-24T11:29:47.919Z,3.90
2018-07-24T11:32:13.862Z,3.28
2018-07-24T11:34:40.402Z,3.42
2018-07-24T11:37:07.117Z,3.00
2018-07-24T11:39:33.057Z,3.08
2018-07-24T11:41:59.011Z,3.83
2018-07-24T11:44:24.974Z,4.35
2018-07-24T11:46:50.953Z,2.90
2018-07-24T11:49:17.625Z,3.03
2018-07-24T11:51:43.594Z,2.90
2018-07-24T11:54:09.573Z,3.33
2018-07-24T11:56:35.509Z,3.55
2018-07-24T11:59:01.496Z,3.15
2018-07-24T12:01:27.436Z,5.35
2018-07-24T12:03:53.403Z,2.90
2018-07-24T12:06:19.371Z,3.45
2018-07-24T12:08:45.347Z,3.45
2018-07-24T12:11:11.297Z,3.30
2018-07-24T12:13:37.971Z,2.90
2018-07-24T12:16:03.921Z,3.10
2018-07-24T12:18:30.647Z,3.05
2018-07-24T12:20:56.600Z,3.08
2018-07-24T12:23:22.559Z,3.08
2018-07-24T12:25:48.505Z,5.32
2018-07-24T12:28:14.489Z,4.18
2018-07-24T12:30:40.436Z,3.28
2018-07-24T12:33:06.400Z,2.67
2018-07-24T12:35:32.362Z,3.20
2018-07-24T12:37:58.306Z,2.92
2018-07-24T12:40:24.265Z,3.00
2018-07-24T12:42:50.229Z,3.15
2018-07-24T12:45:16.203Z,3.12
2018-07-24T12:47:42.133Z,3.80
2018-07-24T12:50:08.119Z,3.47
2018-07-24T12:52:34.096Z,2.78
2018-07-24T12:55:00.080Z,3.37
2018-07-24T12:57:26.039Z,3.03
2018-07-24T12:59:51.977Z,3.17
2018-07-24T13:02:18.703Z,3.85
2018-07-24T13:04:44.646Z,3.33
2018-07-24T13:07:10.611Z,3.08
2018-07-24T13:09:36.581Z,2.80
2018-07-24T13:12:03.282Z,3.15
2018-07-24T13:14:29.234Z,3.05
2018-07-24T13:16:55.206Z,3.80
2018-07-24T13:19:21.165Z,4.03
2018-07-24T13:21:47.146Z,5.70
2018-07-24T13:24:13.081Z,3.35
2018-07-24T13:26:39.011Z,3.55
2018-07-24T13:29:04.994Z,3.45
2018-07-24T13:31:31.675Z,3.17
2018-07-24T13:33:57.659Z,2.80
2018-07-24T13:36:23.622Z,2.83
2018-07-24T13:38:49.600Z,3.33
2018-07-24T13:41:16.291Z,3.58
2018-07-24T13:43:42.269Z,3.22
2018-07-24T13:46:08.310Z,3.78
2018-07-24T13:48:34.222Z,2.70
2018-07-24T13:51:00.186Z,2.90
2018-07-24T13:53:26.137Z,4.07
2018-07-24T13:55:52.852Z,5.65
2018-07-24T13:58:18.787Z,3.28
2018-07-24T14:00:45.500Z,2.60
2018-07-24T14:03:11.420Z,3.00
2018-07-24T14:05:37.416Z,4.60
2018-07-24T14:08:03.360Z,3.60
2018-07-24T14:10:29.334Z,2.78
2018-07-24T14:12:56.022Z,2.90
2018-07-24T14:15:22.008Z,2.97
2018-07-24T14:17:48.002Z,2.85
2018-07-24T14:20:13.940Z,3.15
2018-07-24T14:22:40.681Z,3.25
2018-07-24T14:25:06.599Z,2.75
2018-07-24T14:27:33.310Z,4.63
2018-07-24T14:29:59.257Z,3.22
2018-07-24T14:32:25.235Z,3.53
2018-07-24T14:34:51.184Z,3.30
2018-07-24T14:37:17.132Z,3.00
2018-07-24T14:39:50.015Z,3.22
2018-07-24T14:42:16.697Z,6.10
2018-07-24T14:44:42.651Z,3.20
2018-07-24T14:47:08.598Z,4.80
2018-07-24T14:49:35.303Z,5.07
2018-07-24T14:52:01.972Z,3.20
2018-07-24T14:54:27.931Z,2.83
2018-07-24T14:56:53.865Z,2.90
2018-07-24T14:59:19.804Z,3.20
2018-07-24T15:01:45.764Z,3.80
2018-07-24T15:04:11.710Z,3.97
2018-07-24T15:06:37.712Z,2.90
2018-07-24T15:09:03.634Z,2.97
2018-07-24T15:11:29.592Z,2.83
2018-07-24T15:13:56.003Z,5.40
2018-07-24T15:16:21.971Z,2.90
2018-07-24T15:18:47.932Z,3.05
2018-07-24T15:21:14.636Z,3.37
2018-07-24T15:23:40.648Z,2.67
2018-07-24T15:26:06.618Z,3.72
2018-07-24T15:28:32.591Z,2.95
2018-07-24T15:30:58.567Z,2.90
2018-07-24T15:33:24.551Z,3.20
2018-07-24T15:35:50.503Z,3.00
2018-07-24T15:38:16.442Z,3.00
2018-07-24T15:40:43.127Z,3.92
2018-07-24T15:43:09.056Z,3.10
2018-07-24T15:45:35.022Z,2.92
2018-07-24T15:48:01.728Z,2.75
2018-07-24T15:50:27.693Z,3.20
2018-07-24T15:52:54.386Z,3.35
2018-07-24T15:55:20.347Z,3.30
2018-07-24T15:57:47.038Z,2.83
2018-07-24T16:00:12.975Z,2.80
2018-07-24T16:02:38.945Z,2.97
2018-07-24T16:05:04.912Z,3.37
2018-07-24T16:07:30.861Z,4.13
2018-07-24T16:09:56.796Z,3.57
2018-07-24T16:12:22.757Z,3.10
2018-07-24T16:14:48.680Z,3.83
2018-07-24T16:17:14.616Z,3.77
2018-07-24T16:19:40.568Z,3.10
2018-07-24T16:22:06.708Z,3.77
2018-07-24T16:24:32.718Z,2.90
2018-07-24T16:26:58.712Z,3.27
2018-07-24T16:29:24.669Z,3.53
2018-07-24T16:31:50.607Z,3.83
2018-07-24T16:34:17.346Z,3.07
2018-07-24T16:36:44.012Z,3.57
2018-07-24T16:39:09.939Z,4.83
2018-07-24T16:41:35.878Z,3.30
2018-07-24T16:44:01.890Z,4.37
2018-07-24T16:46:28.597Z,2.90
2018-07-24T16:48:55.284Z,5.23
2018-07-24T16:51:21.239Z,6.97
2018-07-24T16:53:47.185Z,3.67
2018-07-24T16:56:13.887Z,2.90
2018-07-24T16:58:39.869Z,2.97
2018-07-24T17:01:05.822Z,2.67
2018-07-24T17:03:32.528Z,2.97
2018-07-24T17:05:59.193Z,2.73
2018-07-24T17:08:25.200Z,6.13
2018-07-24T17:10:51.850Z,4.90
2018-07-24T17:13:17.875Z,3.00
2018-07-24T17:15:43.904Z,2.77
2018-07-24T17:18:09.915Z,3.47
2018-07-24T17:20:36.614Z,3.97
2018-07-24T17:23:03.299Z,5.53
2018-07-24T17:25:30.012Z,5.30
2018-07-24T17:27:56.706Z,4.90
2018-07-24T17:30:22.678Z,3.23
2018-07-24T17:32:48.607Z,3.00
2018-07-24T17:35:14.581Z,2.90
2018-07-24T17:37:40.546Z,3.17
2018-07-24T17:40:06.495Z,2.50
2018-07-24T17:42:32.466Z,3.07
2018-07-24T17:44:59.145Z,6.53
2018-07-24T17:47:25.136Z,2.63
2018-07-24T17:49:51.815Z,5.53
2018-07-24T17:52:17.766Z,5.50
2018-07-24T17:54:43.734Z,4.17
2018-07-24T17:57:09.760Z,3.53
2018-07-24T17:59:35.761Z,3.30
2018-07-24T18:02:02.461Z,2.87
2018-07-24T18:04:28.418Z,2.77
2018-07-24T18:06:54.357Z,3.03
2018-07-24T18:09:21.069Z,3.60
2018-07-24T18:11:47.013Z,4.37
2018-07-24T18:14:13.705Z,5.00
2018-07-24T18:16:39.694Z,3.10
2018-07-24T18:19:06.371Z,2.80
2018-07-24T18:21:32.346Z,2.70
2018-07-24T18:23:59.017Z,3.03
2018-07-24T18:26:24.984Z,2.80
2018-07-24T18:28:50.919Z,2.77
2018-07-24T18:31:17.622Z,3.17
2018-07-24T18:33:43.545Z,2.70
2018-07-24T18:36:09.510Z,3.03
2018-07-24T18:38:36.259Z,2.50
2018-07-24T18:41:02.164Z,3.03
2018-07-24T18:43:28.140Z,4.93
2018-07-24T18:45:54.067Z,3.93
2018-07-24T18:48:20.044Z,3.07
2018-07-24T18:50:46.769Z,2.60
2018-07-24T18:53:13.534Z,3.30
2018-07-24T18:55:39.498Z,3.43
2018-07-24T18:58:05.591Z,2.87
2018-07-24T19:00:31.670Z,3.63
2018-07-24T19:02:57.632Z,2.70
2018-07-24T19:05:24.373Z,2.53
2018-07-24T19:07:50.378Z,3.70
2018-07-24T19:10:17.244Z,4.20
2018-07-24T19:12:43.416Z,2.50
2018-07-24T19:15:10.303Z,6.10
2018-07-24T19:17:36.551Z,2.60
2018-07-24T19:20:02.584Z,3.43
2018-07-24T19:22:28.565Z,3.87
2018-07-24T19:24:54.661Z,2.60
2018-07-24T19:27:20.891Z,4.27
2018-07-24T19:29:47.874Z,3.97
2018-07-24T19:32:14.129Z,2.90
2018-07-24T19:34:40.320Z,2.53
2018-07-24T19:37:06.424Z,2.83
2018-07-24T19:39:32.480Z,2.83
2018-07-24T19:41:58.588Z,3.27
2018-07-24T19:44:25.507Z,3.37
2018-07-24T19:46:51.723Z,2.57
2018-07-24T19:49:18.025Z,2.53
2018-07-24T19:51:44.233Z,3.63
2018-07-24T19:54:10.356Z,2.63
2018-07-24T19:56:36.563Z,4.43
2018-07-24T19:59:03.437Z,3.70
2018-07-24T20:01:30.211Z,2.57
2018-07-24T20:03:56.305Z,5.03
2018-07-24T20:06:23.162Z,2.40
2018-07-24T20:08:49.232Z,2.63
2018-07-24T20:11:15.280Z,2.63
2018-07-24T20:13:41.476Z,2.43
2018-07-24T20:16:07.733Z,2.70
2018-07-24T20:18:33.988Z,2.70
2018-07-24T20:21:00.180Z,2.43
2018-07-24T20:23:26.216Z,3.13
2018-07-24T20:25:52.221Z,3.57
2018-07-24T20:28:18.318Z,3.70
2018-07-24T20:30:44.369Z,2.43
2018-07-24T20:33:10.344Z,4.67
2018-07-24T20:35:37.082Z,2.87
2018-07-24T20:38:03.927Z,2.53
2018-07-24T20:40:29.987Z,5.00
2018-07-24T20:42:55.987Z,2.87
2018-07-24T20:45:21.952Z,2.57
2018-07-24T20:47:47.979Z,3.50
2018-07-24T20:50:14.024Z,3.33
2018-07-24T20:52:40.019Z,2.90
2018-07-24T20:55:06.051Z,3.10
2018-07-24T20:57:32.099Z,3.27
2018-07-24T20:59:58.051Z,2.93
2018-07-24T21:02:24.736Z,2.83
2018-07-24T21:04:50.713Z,3.70
2018-07-24T21:07:17.396Z,3.07
2018-07-24T21:09:43.450Z,2.83
2018-07-24T21:12:09.459Z,3.83
2018-07-24T21:14:35.507Z,3.70
2018-07-24T21:17:02.235Z,4.97
2018-07-24T21:19:28.235Z,3.37
2018-07-24T21:21:54.220Z,3.97
2018-07-24T21:24:20.165Z,3.03
2018-07-24T21:26:46.175Z,3.73
2018-07-24T21:29:12.733Z,7.50
2018-07-24T21:31:38.692Z,2.67
2018-07-24T21:34:04.681Z,2.90
2018-07-24T21:36:30.635Z,2.87
2018-07-24T21:38:57.525Z,3.80
2018-07-24T21:41:23.518Z,2.83
2018-07-24T21:43:50.235Z,3.77
2018-07-24T21:46:16.199Z,2.80
2018-07-24T21:48:42.148Z,2.67
2018-07-24T21:51:08.105Z,3.40
2018-07-24T21:53:34.227Z,2.97
2018-07-24T21:56:00.228Z,4.57
2018-07-24T21:58:26.177Z,3.87
2018-07-24T22:00:52.182Z,3.10
2018-07-24T22:03:18.108Z,3.73
2018-07-24T22:05:44.084Z,4.07
2018-07-24T22:08:10.789Z,2.93
2018-07-24T22:10:36.759Z,3.03
2018-07-24T22:13:02.723Z,4.63
2018-07-24T22:15:29.421Z,3.77
2018-07-24T22:17:55.420Z,2.93
2018-07-24T22:20:21.381Z,2.73
2018-07-24T22:22:47.378Z,4.27
2018-07-24T22:25:13.366Z,3.50
2018-07-24T22:27:39.314Z,3.20
2018-07-24T22:30:05.318Z,3.50
2018-07-24T22:32:31.363Z,2.97
2018-07-24T22:34:57.362Z,4.30
2018-07-24T22:37:23.308Z,3.60
2018-07-24T22:39:49.294Z,4.53
2018-07-24T22:42:15.223Z,3.57
2018-07-24T22:44:41.192Z,3.77
2018-07-24T22:47:07.152Z,5.80
2018-07-24T22:49:33.095Z,4.83
2018-07-24T22:51:59.029Z,4.67
2018-07-24T22:54:25.707Z,4.23
2018-07-24T22:56:51.685Z,6.57
2018-07-24T22:59:18.365Z,6.40
2018-07-24T23:01:44.324Z,4.77
2018-07-24T23:04:11.039Z,3.87
2018-07-24T23:06:37.017Z,4.20
2018-07-24T23:09:02.953Z,5.00
2018-07-24T23:11:29.658Z,4.07
2018-07-24T23:13:55.644Z,4.00
2018-07-24T23:16:21.567Z,5.73
2018-07-24T23:18:47.515Z,7.00
2018-07-24T23:21:13.463Z,5.17
2018-07-24T23:23:39.438Z,5.97
2018-07-24T23:26:05.384Z,4.70
2018-07-24T23:28:31.365Z,7.20
2018-07-24T23:30:57.310Z,5.23
2018-07-24T23:33:23.257Z,7.57
2018-07-24T23:35:49.241Z,6.57
2018-07-24T23:38:15.171Z,5.97
2018-07-24T23:40:41.150Z,5.40
2018-07-24T23:43:07.080Z,5.97
2018-07-24T23:45:33.801Z,7.20
2018-07-24T23:47:59.756Z,7.00
2018-07-24T23:50:25.698Z,8.07
2018-07-24T23:52:51.667Z,6.60
2018-07-24T23:55:17.614Z,6.80
2018-07-24T23:57:44.304Z,6.83
